sensor_id;sensor_type;location;lat;lon;timestamp;P1;durP1;ratioP1;P2;durP2;ratioP2
64688;SDS011;62504;46.070;14.492;2023-09-19T00:00:23;21.77;;;12.85;;
64688;SDS011;62504;46.070;14.492;2023-09-19T00:02:55;21.48;;;12.50;;
64688;SDS011;62504;46.070;14.492;2023-09-19T00:05:22;24.23;;;12.73;;
64688;SDS011;62504;46.070;14.492;2023-09-19T00:07:52;24.88;;;12.65;;
64688;SDS011;62504;46.070;14.492;2023-09-19T00:10:19;27.38;;;13.25;;
64688;SDS011;62504;46.070;14.492;2023-09-19T00:12:47;25.95;;;12.45;;
64688;SDS011;62504;46.070;14.492;2023-09-19T00:15:12;22.05;;;12.50;;
64688;SDS011;62504;46.070;14.492;2023-09-19T00:17:43;24.50;;;12.55;;
64688;SDS011;62504;46.070;14.492;2023-09-19T00:20:09;22.20;;;12.15;;
64688;SDS011;62504;46.070;14.492;2023-09-19T00:22:40;23.90;;;13.48;;
64688;SDS011;62504;46.070;14.492;2023-09-19T00:25:10;20.15;;;12.48;;
64688;SDS011;62504;46.070;14.492;2023-09-19T00:27:37;21.42;;;12.00;;
64688;SDS011;62504;46.070;14.492;2023-09-19T00:30:07;24.40;;;12.38;;
64688;SDS011;62504;46.070;14.492;2023-09-19T00:32:49;26.58;;;12.85;;
64688;SDS011;62504;46.070;14.492;2023-09-19T00:35:17;26.77;;;12.93;;
64688;SDS011;62504;46.070;14.492;2023-09-19T00:37:49;22.70;;;12.93;;
64688;SDS011;62504;46.070;14.492;2023-09-19T00:40:15;28.13;;;13.73;;
64688;SDS011;62504;46.070;14.492;2023-09-19T00:42:44;25.88;;;13.73;;
64688;SDS011;62504;46.070;14.492;2023-09-19T00:45:14;26.23;;;12.88;;
64688;SDS011;62504;46.070;14.492;2023-09-19T00:47:43;23.15;;;12.10;;
64688;SDS011;62504;46.070;14.492;2023-09-19T00:50:13;23.73;;;12.38;;
64688;SDS011;62504;46.070;14.492;2023-09-19T00:52:42;19.83;;;11.85;;
64688;SDS011;62504;46.070;14.492;2023-09-19T00:55:09;28.05;;;12.93;;
64688;SDS011;62504;46.070;14.492;2023-09-19T00:57:37;22.35;;;12.98;;
64688;SDS011;62504;46.070;14.492;2023-09-19T01:00:03;21.48;;;12.15;;
64688;SDS011;62504;46.070;14.492;2023-09-19T01:02:36;23.63;;;12.93;;
64688;SDS011;62504;46.070;14.492;2023-09-19T01:05:02;24.60;;;12.90;;
64688;SDS011;62504;46.070;14.492;2023-09-19T01:07:31;23.43;;;12.87;;
64688;SDS011;62504;46.070;14.492;2023-09-19T01:09:58;20.53;;;12.90;;
64688;SDS011;62504;46.070;14.492;2023-09-19T01:12:33;26.10;;;12.77;;
64688;SDS011;62504;46.070;14.492;2023-09-19T01:29:13;22.13;;;12.80;;
64688;SDS011;62504;46.070;14.492;2023-09-19T01:31:55;23.30;;;13.30;;
64688;SDS011;62504;46.070;14.492;2023-09-19T01:34:39;24.85;;;13.18;;
64688;SDS011;62504;46.070;14.492;2023-09-19T01:37:15;24.48;;;12.32;;
64688;SDS011;62504;46.070;14.492;2023-09-19T01:39:45;20.83;;;13.00;;
64688;SDS011;62504;46.070;14.492;2023-09-19T01:42:35;23.52;;;14.05;;
64688;SDS011;62504;46.070;14.492;2023-09-19T01:45:18;21.52;;;13.07;;
64688;SDS011;62504;46.070;14.492;2023-09-19T01:48:00;25.98;;;13.30;;
64688;SDS011;62504;46.070;14.492;2023-09-19T01:54:26;25.60;;;13.10;;
64688;SDS011;62504;46.070;14.492;2023-09-19T01:56:40;20.00;;;11.88;;
64688;SDS011;62504;46.070;14.492;2023-09-19T01:59:13;22.95;;;11.82;;
64688;SDS011;62504;46.070;14.492;2023-09-19T02:01:42;24.67;;;13.52;;
64688;SDS011;62504;46.070;14.492;2023-09-19T02:04:10;26.98;;;12.63;;
64688;SDS011;62504;46.070;14.492;2023-09-19T02:06:39;20.88;;;11.93;;
64688;SDS011;62504;46.070;14.492;2023-09-19T02:09:06;23.73;;;12.77;;
64688;SDS011;62504;46.070;14.492;2023-09-19T02:11:32;19.95;;;12.25;;
64688;SDS011;62504;46.070;14.492;2023-09-19T02:13:57;18.95;;;11.90;;
64688;SDS011;62504;46.070;14.492;2023-09-19T02:16:24;22.77;;;12.35;;
64688;SDS011;62504;46.070;14.492;2023-09-19T02:18:50;23.90;;;13.02;;
64688;SDS011;62504;46.070;14.492;2023-09-19T02:21:16;20.52;;;11.95;;
64688;SDS011;62504;46.070;14.492;2023-09-19T02:23:43;22.17;;;12.43;;
64688;SDS011;62504;46.070;14.492;2023-09-19T02:26:09;21.23;;;12.25;;
64688;SDS011;62504;46.070;14.492;2023-09-19T02:28:37;22.90;;;12.00;;
64688;SDS011;62504;46.070;14.492;2023-09-19T02:31:02;18.75;;;12.05;;
64688;SDS011;62504;46.070;14.492;2023-09-19T02:33:30;17.63;;;11.63;;
64688;SDS011;62504;46.070;14.492;2023-09-19T02:35:57;22.88;;;12.23;;
64688;SDS011;62504;46.070;14.492;2023-09-19T02:38:24;19.42;;;12.05;;
64688;SDS011;62504;46.070;14.492;2023-09-19T02:40:51;18.80;;;12.15;;
64688;SDS011;62504;46.070;14.492;2023-09-19T02:43:17;21.95;;;13.18;;
64688;SDS011;62504;46.070;14.492;2023-09-19T02:45:44;25.92;;;14.00;;
64688;SDS011;62504;46.070;14.492;2023-09-19T02:48:11;23.58;;;13.75;;
64688;SDS011;62504;46.070;14.492;2023-09-19T02:50:37;27.88;;;14.65;;
64688;SDS011;62504;46.070;14.492;2023-09-19T02:53:05;26.30;;;14.43;;
64688;SDS011;62504;46.070;14.492;2023-09-19T02:55:31;25.80;;;15.20;;
64688;SDS011;62504;46.070;14.492;2023-09-19T02:57:57;32.58;;;15.68;;
64688;SDS011;62504;46.070;14.492;2023-09-19T03:00:23;26.70;;;15.68;;
64688;SDS011;62504;46.070;14.492;2023-09-19T03:02:49;27.52;;;15.52;;
64688;SDS011;62504;46.070;14.492;2023-09-19T03:05:18;26.73;;;15.55;;
64688;SDS011;62504;46.070;14.492;2023-09-19T03:07:44;26.08;;;14.00;;
64688;SDS011;62504;46.070;14.492;2023-09-19T03:10:20;24.60;;;14.32;;
64688;SDS011;62504;46.070;14.492;2023-09-19T03:12:49;24.02;;;14.57;;
64688;SDS011;62504;46.070;14.492;2023-09-19T03:15:15;22.85;;;14.32;;
64688;SDS011;62504;46.070;14.492;2023-09-19T03:17:44;29.02;;;15.68;;
64688;SDS011;62504;46.070;14.492;2023-09-19T03:20:12;23.77;;;14.25;;
64688;SDS011;62504;46.070;14.492;2023-09-19T03:22:39;24.08;;;15.32;;
64688;SDS011;62504;46.070;14.492;2023-09-19T03:25:05;24.20;;;15.05;;
64688;SDS011;62504;46.070;14.492;2023-09-19T03:27:36;25.42;;;15.23;;
64688;SDS011;62504;46.070;14.492;2023-09-19T03:30:02;28.48;;;15.88;;
64688;SDS011;62504;46.070;14.492;2023-09-19T03:32:33;34.80;;;15.25;;
64688;SDS011;62504;46.070;14.492;2023-09-19T03:35:02;31.83;;;15.95;;
64688;SDS011;62504;46.070;14.492;2023-09-19T03:37:31;25.55;;;14.20;;
64688;SDS011;62504;46.070;14.492;2023-09-19T03:39:58;24.50;;;13.07;;
64688;SDS011;62504;46.070;14.492;2023-09-19T03:42:24;19.73;;;12.63;;
64688;SDS011;62504;46.070;14.492;2023-09-19T03:44:51;23.08;;;13.50;;
64688;SDS011;62504;46.070;14.492;2023-09-19T03:47:17;22.95;;;13.20;;
64688;SDS011;62504;46.070;14.492;2023-09-19T03:49:44;22.25;;;12.80;;
64688;SDS011;62504;46.070;14.492;2023-09-19T03:52:09;34.60;;;19.25;;
64688;SDS011;62504;46.070;14.492;2023-09-19T03:54:35;22.02;;;14.55;;
64688;SDS011;62504;46.070;14.492;2023-09-19T03:57:01;27.27;;;14.75;;
64688;SDS011;62504;46.070;14.492;2023-09-19T03:59:29;22.85;;;13.95;;
64688;SDS011;62504;46.070;14.492;2023-09-19T04:01:54;23.67;;;13.63;;
64688;SDS011;62504;46.070;14.492;2023-09-19T04:04:22;27.65;;;14.10;;
64688;SDS011;62504;46.070;14.492;2023-09-19T04:06:49;24.17;;;13.93;;
64688;SDS011;62504;46.070;14.492;2023-09-19T04:09:18;23.13;;;13.13;;
64688;SDS011;62504;46.070;14.492;2023-09-19T04:11:44;23.48;;;13.02;;
64688;SDS011;62504;46.070;14.492;2023-09-19T04:14:09;26.43;;;12.90;;
64688;SDS011;62504;46.070;14.492;2023-09-19T04:16:35;23.27;;;12.73;;
64688;SDS011;62504;46.070;14.492;2023-09-19T04:19:01;19.17;;;11.83;;
64688;SDS011;62504;46.070;14.492;2023-09-19T04:21:28;22.17;;;11.73;;
64688;SDS011;62504;46.070;14.492;2023-09-19T04:23:54;22.65;;;11.13;;
64688;SDS011;62504;46.070;14.492;2023-09-19T04:26:19;19.48;;;10.02;;
64688;SDS011;62504;46.070;14.492;2023-09-19T04:28:46;14.20;;;7.47;;
64688;SDS011;62504;46.070;14.492;2023-09-19T04:31:12;11.30;;;5.65;;
64688;SDS011;62504;46.070;14.492;2023-09-19T04:33:39;6.97;;;4.35;;
64688;SDS011;62504;46.070;14.492;2023-09-19T04:36:04;7.10;;;3.58;;
64688;SDS011;62504;46.070;14.492;2023-09-19T04:38:32;7.80;;;3.97;;
64688;SDS011;62504;46.070;14.492;2023-09-19T04:40:58;10.18;;;3.70;;
64688;SDS011;62504;46.070;14.492;2023-09-19T04:43:24;7.43;;;3.30;;
64688;SDS011;62504;46.070;14.492;2023-09-19T04:45:50;7.05;;;2.80;;
64688;SDS011;62504;46.070;14.492;2023-09-19T04:48:20;3.40;;;1.98;;
64688;SDS011;62504;46.070;14.492;2023-09-19T04:50:52;7.75;;;1.20;;
64688;SDS011;62504;46.070;14.492;2023-09-19T04:53:18;4.00;;;3.03;;
64688;SDS011;62504;46.070;14.492;2023-09-19T04:55:49;6.63;;;1.33;;
64688;SDS011;62504;46.070;14.492;2023-09-19T04:58:15;1.92;;;1.05;;
64688;SDS011;62504;46.070;14.492;2023-09-19T05:00:42;2.08;;;1.15;;
64688;SDS011;62504;46.070;14.492;2023-09-19T05:03:08;2.85;;;0.75;;
64688;SDS011;62504;46.070;14.492;2023-09-19T05:05:34;2.85;;;0.80;;
64688;SDS011;62504;46.070;14.492;2023-09-19T05:07:59;3.80;;;1.30;;
64688;SDS011;62504;46.070;14.492;2023-09-19T05:10:25;2.03;;;1.20;;
64688;SDS011;62504;46.070;14.492;2023-09-19T05:12:54;1.60;;;1.40;;
64688;SDS011;62504;46.070;14.492;2023-09-19T05:15:20;3.40;;;1.57;;
64688;SDS011;62504;46.070;14.492;2023-09-19T05:17:52;3.67;;;1.60;;
64688;SDS011;62504;46.070;14.492;2023-09-19T05:20:20;2.70;;;1.30;;
64688;SDS011;62504;46.070;14.492;2023-09-19T05:23:12;3.92;;;1.38;;
64688;SDS011;62504;46.070;14.492;2023-09-19T05:25:38;2.58;;;1.35;;
64688;SDS011;62504;46.070;14.492;2023-09-19T05:28:05;2.30;;;1.50;;
64688;SDS011;62504;46.070;14.492;2023-09-19T05:30:32;259.00;;;123.37;;
64688;SDS011;62504;46.070;14.492;2023-09-19T05:33:01;57.50;;;26.58;;
64688;SDS011;62504;46.070;14.492;2023-09-19T05:35:27;18.07;;;7.93;;
64688;SDS011;62504;46.070;14.492;2023-09-19T05:37:53;32.53;;;15.77;;
64688;SDS011;62504;46.070;14.492;2023-09-19T05:40:20;33.10;;;18.37;;
64688;SDS011;62504;46.070;14.492;2023-09-19T05:42:46;8.00;;;3.30;;
64688;SDS011;62504;46.070;14.492;2023-09-19T05:45:13;4.45;;;1.40;;
64688;SDS011;62504;46.070;14.492;2023-09-19T05:47:40;4.57;;;1.80;;
64688;SDS011;62504;46.070;14.492;2023-09-19T05:50:10;2.17;;;1.30;;
64688;SDS011;62504;46.070;14.492;2023-09-19T05:52:37;3.73;;;1.90;;
64688;SDS011;62504;46.070;14.492;2023-09-19T05:55:04;2.97;;;1.43;;
64688;SDS011;62504;46.070;14.492;2023-09-19T05:57:31;2.67;;;1.40;;
64688;SDS011;62504;46.070;14.492;2023-09-19T05:59:57;2.90;;;2.00;;
64688;SDS011;62504;46.070;14.492;2023-09-19T06:02:23;4.63;;;1.60;;
64688;SDS011;62504;46.070;14.492;2023-09-19T06:04:52;3.50;;;1.40;;
64688;SDS011;62504;46.070;14.492;2023-09-19T06:07:18;2.83;;;1.40;;
64688;SDS011;62504;46.070;14.492;2023-09-19T06:09:43;3.33;;;1.30;;
64688;SDS011;62504;46.070;14.492;2023-09-19T06:12:09;2.90;;;1.30;;
64688;SDS011;62504;46.070;14.492;2023-09-19T06:14:37;2.30;;;1.40;;
64688;SDS011;62504;46.070;14.492;2023-09-19T06:17:05;5.57;;;2.50;;
64688;SDS011;62504;46.070;14.492;2023-09-19T06:19:31;3.23;;;1.60;;
64688;SDS011;62504;46.070;14.492;2023-09-19T06:21:57;3.27;;;1.50;;
64688;SDS011;62504;46.070;14.492;2023-09-19T06:24:24;6.57;;;2.90;;
64688;SDS011;62504;46.070;14.492;2023-09-19T06:26:50;2.93;;;1.90;;
64688;SDS011;62504;46.070;14.492;2023-09-19T06:29:18;5.63;;;1.80;;
64688;SDS011;62504;46.070;14.492;2023-09-19T06:31:45;3.13;;;1.70;;
64688;SDS011;62504;46.070;14.492;2023-09-19T06:34:12;3.08;;;1.70;;
64688;SDS011;62504;46.070;14.492;2023-09-19T06:36:40;6.15;;;1.92;;
64688;SDS011;62504;46.070;14.492;2023-09-19T06:39:06;4.20;;;2.08;;
64688;SDS011;62504;46.070;14.492;2023-09-19T06:41:35;4.35;;;1.80;;
64688;SDS011;62504;46.070;14.492;2023-09-19T06:44:04;3.40;;;1.23;;
64688;SDS011;62504;46.070;14.492;2023-09-19T06:46:30;4.50;;;1.30;;
64688;SDS011;62504;46.070;14.492;2023-09-19T06:49:00;5.10;;;1.30;;
64688;SDS011;62504;46.070;14.492;2023-09-19T06:51:32;2.77;;;1.40;;
64688;SDS011;62504;46.070;14.492;2023-09-19T06:53:59;4.53;;;1.50;;
64688;SDS011;62504;46.070;14.492;2023-09-19T06:56:26;3.15;;;1.52;;
64688;SDS011;62504;46.070;14.492;2023-09-19T06:58:52;3.17;;;1.40;;
64688;SDS011;62504;46.070;14.492;2023-09-19T07:01:17;3.17;;;1.47;;
64688;SDS011;62504;46.070;14.492;2023-09-19T07:03:43;3.30;;;1.33;;
64688;SDS011;62504;46.070;14.492;2023-09-19T07:06:10;3.20;;;1.60;;
64688;SDS011;62504;46.070;14.492;2023-09-19T07:08:36;2.60;;;1.37;;
64688;SDS011;62504;46.070;14.492;2023-09-19T07:11:03;4.20;;;1.40;;
64688;SDS011;62504;46.070;14.492;2023-09-19T07:13:31;5.30;;;3.10;;
64688;SDS011;62504;46.070;14.492;2023-09-19T07:15:58;4.83;;;2.60;;
64688;SDS011;62504;46.070;14.492;2023-09-19T07:18:24;7.27;;;1.93;;
64688;SDS011;62504;46.070;14.492;2023-09-19T07:20:50;3.70;;;1.60;;
64688;SDS011;62504;46.070;14.492;2023-09-19T07:23:16;3.33;;;1.63;;
64688;SDS011;62504;46.070;14.492;2023-09-19T07:25:47;3.10;;;1.90;;
64688;SDS011;62504;46.070;14.492;2023-09-19T07:28:13;2.97;;;2.03;;
64688;SDS011;62504;46.070;14.492;2023-09-19T07:30:40;2.30;;;1.60;;
64688;SDS011;62504;46.070;14.492;2023-09-19T07:33:06;3.90;;;1.70;;
64688;SDS011;62504;46.070;14.492;2023-09-19T07:35:33;5.37;;;2.40;;
64688;SDS011;62504;46.070;14.492;2023-09-19T07:37:59;4.05;;;1.90;;
64688;SDS011;62504;46.070;14.492;2023-09-19T07:40:26;5.57;;;2.10;;
64688;SDS011;62504;46.070;14.492;2023-09-19T07:42:53;6.50;;;1.80;;
64688;SDS011;62504;46.070;14.492;2023-09-19T07:45:20;3.70;;;1.90;;
64688;SDS011;62504;46.070;14.492;2023-09-19T07:47:46;4.97;;;1.97;;
64688;SDS011;62504;46.070;14.492;2023-09-19T07:50:12;2.97;;;1.73;;
64688;SDS011;62504;46.070;14.492;2023-09-19T07:52:39;2.90;;;1.73;;
64688;SDS011;62504;46.070;14.492;2023-09-19T07:55:06;4.45;;;1.80;;
64688;SDS011;62504;46.070;14.492;2023-09-19T07:57:36;6.27;;;2.47;;
64688;SDS011;62504;46.070;14.492;2023-09-19T08:00:02;4.20;;;2.17;;
64688;SDS011;62504;46.070;14.492;2023-09-19T08:02:38;3.90;;;2.07;;
64688;SDS011;62504;46.070;14.492;2023-09-19T08:05:05;3.20;;;1.77;;
64688;SDS011;62504;46.070;14.492;2023-09-19T08:07:34;4.75;;;2.17;;
64688;SDS011;62504;46.070;14.492;2023-09-19T08:10:01;4.15;;;2.25;;
64688;SDS011;62504;46.070;14.492;2023-09-19T08:12:28;6.43;;;3.27;;
64688;SDS011;62504;46.070;14.492;2023-09-19T08:14:55;5.23;;;2.37;;
64688;SDS011;62504;46.070;14.492;2023-09-19T08:17:20;5.72;;;2.20;;
64688;SDS011;62504;46.070;14.492;2023-09-19T08:19:48;8.18;;;2.65;;
64688;SDS011;62504;46.070;14.492;2023-09-19T08:22:18;5.67;;;2.50;;
64688;SDS011;62504;46.070;14.492;2023-09-19T08:24:44;4.27;;;2.27;;
64688;SDS011;62504;46.070;14.492;2023-09-19T08:27:11;5.10;;;2.30;;
64688;SDS011;62504;46.070;14.492;2023-09-19T08:29:37;4.72;;;2.33;;
64688;SDS011;62504;46.070;14.492;2023-09-19T08:32:03;6.90;;;2.70;;
64688;SDS011;62504;46.070;14.492;2023-09-19T08:34:29;6.30;;;2.37;;
64688;SDS011;62504;46.070;14.492;2023-09-19T08:36:57;6.00;;;2.60;;
64688;SDS011;62504;46.070;14.492;2023-09-19T08:39:23;5.87;;;2.83;;
64688;SDS011;62504;46.070;14.492;2023-09-19T08:41:59;8.33;;;2.83;;
64688;SDS011;62504;46.070;14.492;2023-09-19T08:44:26;7.07;;;2.80;;
64688;SDS011;62504;46.070;14.492;2023-09-19T08:46:55;6.97;;;2.10;;
64688;SDS011;62504;46.070;14.492;2023-09-19T08:49:34;4.20;;;2.30;;
64688;SDS011;62504;46.070;14.492;2023-09-19T08:52:22;9.13;;;2.30;;
64688;SDS011;62504;46.070;14.492;2023-09-19T08:54:52;5.73;;;2.30;;
64688;SDS011;62504;46.070;14.492;2023-09-19T08:57:23;6.13;;;3.17;;
64688;SDS011;62504;46.070;14.492;2023-09-19T08:59:50;7.90;;;2.50;;
64688;SDS011;62504;46.070;14.492;2023-09-19T09:02:16;9.03;;;3.20;;
64688;SDS011;62504;46.070;14.492;2023-09-19T09:04:46;21.10;;;10.67;;
64688;SDS011;62504;46.070;14.492;2023-09-19T09:07:15;8.03;;;4.17;;
64688;SDS011;62504;46.070;14.492;2023-09-19T09:09:44;6.07;;;3.57;;
64688;SDS011;62504;46.070;14.492;2023-09-19T09:12:14;6.53;;;3.70;;
64688;SDS011;62504;46.070;14.492;2023-09-19T09:14:40;8.47;;;3.73;;
64688;SDS011;62504;46.070;14.492;2023-09-19T09:17:14;9.17;;;3.37;;
64688;SDS011;62504;46.070;14.492;2023-09-19T09:19:47;8.03;;;3.47;;
64688;SDS011;62504;46.070;14.492;2023-09-19T09:22:13;9.00;;;3.97;;
64688;SDS011;62504;46.070;14.492;2023-09-19T09:25:00;8.23;;;4.10;;
64688;SDS011;62504;46.070;14.492;2023-09-19T09:27:30;7.63;;;3.50;;
64688;SDS011;62504;46.070;14.492;2023-09-19T09:29:57;8.00;;;3.23;;
64688;SDS011;62504;46.070;14.492;2023-09-19T09:32:27;6.30;;;3.67;;
64688;SDS011;62504;46.070;14.492;2023-09-19T09:34:55;7.83;;;2.67;;
64688;SDS011;62504;46.070;14.492;2023-09-19T09:37:22;7.47;;;3.00;;
64688;SDS011;62504;46.070;14.492;2023-09-19T09:39:56;4.20;;;2.27;;
64688;SDS011;62504;46.070;14.492;2023-09-19T09:42:33;4.23;;;2.30;;
64688;SDS011;62504;46.070;14.492;2023-09-19T09:45:25;3.57;;;2.03;;
64688;SDS011;62504;46.070;14.492;2023-09-19T09:48:02;4.60;;;2.00;;
64688;SDS011;62504;46.070;14.492;2023-09-19T09:50:35;4.30;;;1.97;;
64688;SDS011;62504;46.070;14.492;2023-09-19T09:53:22;3.27;;;1.77;;
64688;SDS011;62504;46.070;14.492;2023-09-19T09:58:34;161.80;;;73.73;;
64688;SDS011;62504;46.070;14.492;2023-09-19T10:01:02;130.63;;;60.40;;
64688;SDS011;62504;46.070;14.492;2023-09-19T10:03:36;138.13;;;69.13;;
64688;SDS011;62504;46.070;14.492;2023-09-19T10:06:11;30.27;;;18.07;;
64688;SDS011;62504;46.070;14.492;2023-09-19T10:09:05;8.07;;;2.70;;
64688;SDS011;62504;46.070;14.492;2023-09-19T10:12:00;6.27;;;2.40;;
64688;SDS011;62504;46.070;14.492;2023-09-19T10:14:30;3.08;;;1.80;;
64688;SDS011;62504;46.070;14.492;2023-09-19T10:16:59;5.65;;;1.80;;
64688;SDS011;62504;46.070;14.492;2023-09-19T10:19:30;3.00;;;2.10;;
64688;SDS011;62504;46.070;14.492;2023-09-19T10:22:01;5.60;;;2.10;;
64688;SDS011;62504;46.070;14.492;2023-09-19T10:24:30;5.90;;;2.17;;
64688;SDS011;62504;46.070;14.492;2023-09-19T10:26:59;6.65;;;2.30;;
64688;SDS011;62504;46.070;14.492;2023-09-19T10:29:25;6.55;;;2.60;;
64688;SDS011;62504;46.070;14.492;2023-09-19T10:31:56;4.28;;;2.17;;
64688;SDS011;62504;46.070;14.492;2023-09-19T10:34:25;5.40;;;2.05;;
64688;SDS011;62504;46.070;14.492;2023-09-19T10:36:52;5.57;;;2.20;;
64688;SDS011;62504;46.070;14.492;2023-09-19T10:39:19;4.55;;;2.00;;
64688;SDS011;62504;46.070;14.492;2023-09-19T10:41:50;5.40;;;2.03;;
64688;SDS011;62504;46.070;14.492;2023-09-19T10:44:25;3.97;;;2.00;;
64688;SDS011;62504;46.070;14.492;2023-09-19T10:46:52;4.93;;;2.00;;
64688;SDS011;62504;46.070;14.492;2023-09-19T10:49:19;4.40;;;1.73;;
64688;SDS011;62504;46.070;14.492;2023-09-19T10:51:46;2.58;;;1.50;;
64688;SDS011;62504;46.070;14.492;2023-09-19T10:54:15;3.95;;;1.80;;
64688;SDS011;62504;46.070;14.492;2023-09-19T10:56:46;2.90;;;1.70;;
64688;SDS011;62504;46.070;14.492;2023-09-19T10:59:16;6.22;;;2.45;;
64688;SDS011;62504;46.070;14.492;2023-09-19T11:07:11;4.50;;;2.42;;
64688;SDS011;62504;46.070;14.492;2023-09-19T11:09:52;12.98;;;6.55;;
64688;SDS011;62504;46.070;14.492;2023-09-19T11:14:59;4.30;;;2.90;;
64688;SDS011;62504;46.070;14.492;2023-09-19T11:30:32;5.18;;;2.05;;
64688;SDS011;62504;46.070;14.492;2023-09-19T11:43:51;3.45;;;1.90;;
64688;SDS011;62504;46.070;14.492;2023-09-19T11:46:20;5.60;;;2.20;;
64688;SDS011;62504;46.070;14.492;2023-09-19T11:48:50;6.07;;;2.08;;
64688;SDS011;62504;46.070;14.492;2023-09-19T11:53:51;6.40;;;1.98;;
64688;SDS011;62504;46.070;14.492;2023-09-19T11:56:25;2.90;;;1.70;;
64688;SDS011;62504;46.070;14.492;2023-09-19T11:58:56;2.95;;;2.10;;
64688;SDS011;62504;46.070;14.492;2023-09-19T12:01:30;8.63;;;3.15;;
64688;SDS011;62504;46.070;14.492;2023-09-19T12:03:57;5.07;;;2.65;;
64688;SDS011;62504;46.070;14.492;2023-09-19T12:06:25;8.90;;;3.00;;
64688;SDS011;62504;46.070;14.492;2023-09-19T12:08:52;5.00;;;2.67;;
64688;SDS011;62504;46.070;14.492;2023-09-19T12:11:27;6.82;;;2.35;;
64688;SDS011;62504;46.070;14.492;2023-09-19T12:13:58;4.05;;;2.35;;
64688;SDS011;62504;46.070;14.492;2023-09-19T12:16:26;6.63;;;2.60;;
64688;SDS011;62504;46.070;14.492;2023-09-19T12:18:55;5.13;;;2.30;;
64688;SDS011;62504;46.070;14.492;2023-09-19T12:21:26;6.32;;;2.72;;
64688;SDS011;62504;46.070;14.492;2023-09-19T12:24:06;7.90;;;2.47;;
64688;SDS011;62504;46.070;14.492;2023-09-19T12:26:42;6.57;;;2.40;;
64688;SDS011;62504;46.070;14.492;2023-09-19T12:29:18;10.77;;;5.93;;
64688;SDS011;62504;46.070;14.492;2023-09-19T12:34:31;5.82;;;2.20;;
64688;SDS011;62504;46.070;14.492;2023-09-19T12:39:41;6.75;;;2.90;;
64688;SDS011;62504;46.070;14.492;2023-09-19T12:42:09;5.75;;;2.50;;
64688;SDS011;62504;46.070;14.492;2023-09-19T12:44:40;6.72;;;2.55;;
64688;SDS011;62504;46.070;14.492;2023-09-19T12:47:20;3.55;;;1.90;;
64688;SDS011;62504;46.070;14.492;2023-09-19T12:50:22;6.63;;;2.15;;
64688;SDS011;62504;46.070;14.492;2023-09-19T12:52:50;4.30;;;2.17;;
64688;SDS011;62504;46.070;14.492;2023-09-19T12:55:21;11.82;;;2.17;;
64688;SDS011;62504;46.070;14.492;2023-09-19T12:57:58;9.35;;;2.05;;
64688;SDS011;62504;46.070;14.492;2023-09-19T13:00:35;4.15;;;1.70;;
64688;SDS011;62504;46.070;14.492;2023-09-19T13:05:54;5.60;;;1.70;;
64688;SDS011;62504;46.070;14.492;2023-09-19T13:13:46;3.63;;;1.50;;
64688;SDS011;62504;46.070;14.492;2023-09-19T13:16:33;4.70;;;2.45;;
64688;SDS011;62504;46.070;14.492;2023-09-19T13:18:58;6.10;;;3.83;;
64688;SDS011;62504;46.070;14.492;2023-09-19T13:21:34;139.60;;;79.22;;
64688;SDS011;62504;46.070;14.492;2023-09-19T13:24:21;266.55;;;134.43;;
64688;SDS011;62504;46.070;14.492;2023-09-19T13:26:48;246.15;;;121.97;;
64688;SDS011;62504;46.070;14.492;2023-09-19T13:29:14;263.92;;;138.40;;
64688;SDS011;62504;46.070;14.492;2023-09-19T13:31:46;9.32;;;5.13;;
64688;SDS011;62504;46.070;14.492;2023-09-19T13:34:16;122.30;;;73.65;;
64688;SDS011;62504;46.070;14.492;2023-09-19T13:36:42;11.90;;;4.57;;
64688;SDS011;62504;46.070;14.492;2023-09-19T13:39:08;3.28;;;1.98;;
64688;SDS011;62504;46.070;14.492;2023-09-19T13:41:34;3.60;;;1.83;;
64688;SDS011;62504;46.070;14.492;2023-09-19T13:44:03;3.50;;;1.70;;
64688;SDS011;62504;46.070;14.492;2023-09-19T13:46:29;3.58;;;1.70;;
64688;SDS011;62504;46.070;14.492;2023-09-19T13:49:00;3.28;;;1.63;;
64688;SDS011;62504;46.070;14.492;2023-09-19T13:51:28;3.58;;;1.80;;
64688;SDS011;62504;46.070;14.492;2023-09-19T13:53:55;5.10;;;1.70;;
64688;SDS011;62504;46.070;14.492;2023-09-19T13:56:24;3.17;;;1.80;;
64688;SDS011;62504;46.070;14.492;2023-09-19T13:58:53;3.17;;;1.60;;
64688;SDS011;62504;46.070;14.492;2023-09-19T14:01:19;5.32;;;2.00;;
64688;SDS011;62504;46.070;14.492;2023-09-19T14:03:45;4.20;;;1.80;;
64688;SDS011;62504;46.070;14.492;2023-09-19T14:06:15;4.90;;;2.42;;
64688;SDS011;62504;46.070;14.492;2023-09-19T14:08:42;5.72;;;1.92;;
64688;SDS011;62504;46.070;14.492;2023-09-19T14:11:09;7.78;;;3.20;;
64688;SDS011;62504;46.070;14.492;2023-09-19T14:13:35;2.30;;;1.80;;
64688;SDS011;62504;46.070;14.492;2023-09-19T14:16:04;9.38;;;5.22;;
64688;SDS011;62504;46.070;14.492;2023-09-19T14:18:31;2.95;;;2.20;;
64688;SDS011;62504;46.070;14.492;2023-09-19T14:20:57;4.75;;;1.90;;
64688;SDS011;62504;46.070;14.492;2023-09-19T14:23:23;3.47;;;1.63;;
64688;SDS011;62504;46.070;14.492;2023-09-19T14:25:50;3.92;;;1.90;;
64688;SDS011;62504;46.070;14.492;2023-09-19T14:28:17;5.03;;;2.00;;
64688;SDS011;62504;46.070;14.492;2023-09-19T14:30:43;3.00;;;1.80;;
64688;SDS011;62504;46.070;14.492;2023-09-19T14:33:09;3.60;;;1.60;;
64688;SDS011;62504;46.070;14.492;2023-09-19T14:35:36;3.10;;;1.70;;
64688;SDS011;62504;46.070;14.492;2023-09-19T14:38:03;2.53;;;1.77;;
64688;SDS011;62504;46.070;14.492;2023-09-19T14:40:29;3.80;;;1.90;;
64688;SDS011;62504;46.070;14.492;2023-09-19T14:42:56;3.63;;;1.90;;
64688;SDS011;62504;46.070;14.492;2023-09-19T14:45:21;4.28;;;2.00;;
64688;SDS011;62504;46.070;14.492;2023-09-19T14:47:47;4.35;;;1.77;;
64688;SDS011;62504;46.070;14.492;2023-09-19T14:50:13;6.60;;;1.90;;
64688;SDS011;62504;46.070;14.492;2023-09-19T14:52:40;5.05;;;1.90;;
64688;SDS011;62504;46.070;14.492;2023-09-19T14:55:06;4.15;;;1.70;;
64688;SDS011;62504;46.070;14.492;2023-09-19T14:57:34;3.35;;;1.77;;
64688;SDS011;62504;46.070;14.492;2023-09-19T15:00:00;2.80;;;1.90;;
64688;SDS011;62504;46.070;14.492;2023-09-19T15:02:25;5.65;;;1.90;;
64688;SDS011;62504;46.070;14.492;2023-09-19T15:04:51;4.28;;;1.95;;
64688;SDS011;62504;46.070;14.492;2023-09-19T15:07:17;6.32;;;2.88;;
64688;SDS011;62504;46.070;14.492;2023-09-19T15:09:43;4.18;;;1.80;;
64688;SDS011;62504;46.070;14.492;2023-09-19T15:12:09;6.13;;;1.85;;
64688;SDS011;62504;46.070;14.492;2023-09-19T15:14:39;3.85;;;2.10;;
64688;SDS011;62504;46.070;14.492;2023-09-19T15:17:06;2.92;;;1.80;;
64688;SDS011;62504;46.070;14.492;2023-09-19T15:19:32;3.70;;;2.05;;
64688;SDS011;62504;46.070;14.492;2023-09-19T15:21:58;5.97;;;1.90;;
64688;SDS011;62504;46.070;14.492;2023-09-19T15:24:23;3.95;;;1.95;;
64688;SDS011;62504;46.070;14.492;2023-09-19T15:26:51;3.50;;;1.67;;
64688;SDS011;62504;46.070;14.492;2023-09-19T15:29:17;4.72;;;1.80;;
64688;SDS011;62504;46.070;14.492;2023-09-19T15:31:45;398.33;;;195.48;;
64688;SDS011;62504;46.070;14.492;2023-09-19T15:34:10;399.85;;;211.70;;
64688;SDS011;62504;46.070;14.492;2023-09-19T15:36:39;293.10;;;180.18;;
64688;SDS011;62504;46.070;14.492;2023-09-19T15:39:07;20.25;;;11.98;;
64688;SDS011;62504;46.070;14.492;2023-09-19T15:41:36;5.93;;;2.88;;
64688;SDS011;62504;46.070;14.492;2023-09-19T15:44:15;3.67;;;2.13;;